Time;durP1;ratioP1;P1;durP2;ratioP2;P2;SDS_P1;SDS_P2;PMS_P1;PMS_P2;Temp;Humidity;BMP_temperature;BMP_pressure;BME280_temperature;BME280_humidity;BME280_pressure;Samples;Min_cycle;Max_cycle;Signal;HPM_P1;HPM_P2
2023/03/01 00:01:03;;;;;;;8.25;7.40;;;;;;;2.02;88.87;103251.19;5038350;28;20033;-73
2023/03/01 00:03:28;;;;;;;8.07;7.28;;;;;;;2.01;89.07;103255.47;5038590;28;20040;-73
2023/03/01 00:05:53;;;;;;;8.30;7.00;;;;;;;2.00;89.00;103255.41;5039233;28;20307;-73
2023/03/01 00:08:19;;;;;;;8.27;7.45;;;;;;;2.00;89.16;103258.00;5038335;28;20048;-73
2023/03/01 00:10:44;;;;;;;9.15;7.85;;;;;;;1.99;89.15;103256.25;5038895;28;20072;-73
2023/03/01 00:13:10;;;;;;;8.45;7.05;;;;;;;1.98;89.14;103247.63;5038908;28;20045;-73
2023/03/01 00:15:41;;;;;;;8.18;6.90;;;;;;;1.98;89.28;103241.56;5038338;28;20254;-73
2023/03/01 00:18:07;;;;;;;8.57;7.68;;;;;;;1.96;89.36;103241.50;5038699;28;20035;-73
2023/03/01 00:20:34;;;;;;;9.07;8.00;;;;;;;1.94;89.28;103237.13;5038192;28;20033;-73
2023/03/01 00:22:59;;;;;;;8.55;7.65;;;;;;;1.95;89.45;103241.47;5039035;28;20236;-73
2023/03/01 00:25:24;;;;;;;7.75;6.88;;;;;;;1.95;89.50;103238.88;5037467;28;20034;-73
2023/03/01 00:27:50;;;;;;;8.43;7.53;;;;;;;1.95;89.79;103232.03;5039327;28;20104;-73
2023/03/01 00:30:15;;;;;;;8.18;7.40;;;;;;;1.96;89.89;103236.34;5038893;28;20079;-73
2023/03/01 00:32:41;;;;;;;9.25;8.00;;;;;;;1.97;89.97;103232.94;5038924;28;20047;-73
2023/03/01 00:35:06;;;;;;;9.15;8.02;;;;;;;1.96;89.83;103233.75;5038857;28;20048;-73
2023/03/01 00:37:32;;;;;;;8.23;7.40;;;;;;;1.98;89.98;103236.41;5038095;28;20038;-73
2023/03/01 00:39:57;;;;;;;8.18;7.38;;;;;;;1.98;90.23;103239.84;5038682;28;20606;-73
2023/03/01 00:42:23;;;;;;;8.63;7.38;;;;;;;1.97;90.07;103235.53;5038215;28;20045;-73
2023/03/01 00:44:48;;;;;;;8.45;7.47;;;;;;;1.99;90.31;103240.75;5038823;28;20051;-73
2023/03/01 00:47:13;;;;;;;7.28;6.57;;;;;;;1.99;90.55;103233.88;5038745;28;20041;-73
2023/03/01 00:49:39;;;;;;;11.75;7.78;;;;;;;1.99;90.64;103231.28;5038252;28;20493;-73
2023/03/01 00:52:04;;;;;;;7.82;7.03;;;;;;;2.02;90.69;103235.66;5038388;28;20060;-73
2023/03/01 00:54:30;;;;;;;8.73;6.97;;;;;;;2.00;90.66;103233.06;5038066;28;20052;-73
2023/03/01 00:56:55;;;;;;;7.85;7.03;;;;;;;2.00;90.77;103233.06;5038699;28;20061;-73
2023/03/01 00:59:20;;;;;;;7.65;6.95;;;;;;;1.99;91.18;103233.88;5038076;28;20237;-73
2023/03/01 01:01:46;;;;;;;7.80;7.00;;;;;;;2.00;90.91;103233.06;5037766;28;20292;-73
2023/03/01 01:04:13;;;;;;;7.68;6.60;;;;;;;1.99;91.17;103231.28;5038478;28;20121;-73
2023/03/01 01:06:44;;;;;;;7.53;6.82;;;;;;;2.00;91.04;103232.16;5037519;28;20052;-73
2023/03/01 01:09:16;;;;;;;7.50;6.80;;;;;;;1.98;91.12;103221.75;5038118;28;20056;-73
2023/03/01 01:11:43;;;;;;;8.07;7.20;;;;;;;1.98;90.99;103228.66;5038092;28;20071;-73
2023/03/01 01:14:08;;;;;;;8.20;7.40;;;;;;;1.94;91.14;103225.09;5038362;28;20309;-73
2023/03/01 01:16:33;;;;;;;7.43;6.68;;;;;;;1.92;91.20;103227.63;5037615;28;20041;-73
2023/03/01 01:18:59;;;;;;;7.47;6.78;;;;;;;1.90;91.16;103229.28;5038063;28;20052;-73
2023/03/01 01:21:25;;;;;;;7.55;6.72;;;;;;;1.88;91.10;103232.66;5037465;28;20278;-73
2023/03/01 01:23:51;;;;;;;7.68;6.78;;;;;;;1.84;90.97;103226.50;5038140;28;20108;-73
2023/03/01 01:26:20;;;;;;;7.63;6.70;;;;;;;1.82;90.97;103227.25;5037524;28;20053;-73
2023/03/01 01:28:46;;;;;;;;;;;;;;;1.79;91.08;103220.28;5038419;28;20405;-73
2023/03/01 01:31:12;;;;;;;8.00;7.15;;;;;;;1.77;91.00;103208.16;5038023;28;19952;-73
2023/03/01 01:33:37;;;;;;;9.60;6.95;;;;;;;1.75;91.00;103200.34;5037648;28;20033;-73
2023/03/01 01:36:04;;;;;;;7.97;7.25;;;;;;;1.74;90.99;103201.16;5038378;28;20048;-73
2023/03/01 01:38:29;;;;;;;6.97;6.38;;;;;;;1.72;91.13;103195.06;5037473;28;20341;-73
2023/03/01 01:40:55;;;;;;;7.30;6.63;;;;;;;1.70;90.96;103187.25;5037624;28;20053;-73
2023/03/01 01:43:28;;;;;;;6.70;6.10;;;;;;;1.68;91.14;103188.03;5037470;28;20387;-73
2023/03/01 01:46:02;;;;;;;6.88;6.28;;;;;;;1.66;91.00;103180.25;5038279;28;20387;-73
2023/03/01 01:48:40;;;;;;;6.90;6.30;;;;;;;1.64;90.99;103183.63;5036920;28;20049;-73
2023/03/01 01:51:11;;;;;;;6.57;5.78;;;;;;;1.61;90.90;103171.44;5037866;28;20376;-73
2023/03/01 01:53:37;;;;;;;7.72;6.63;;;;;;;1.58;90.98;103168.75;5037146;28;20037;-73
2023/03/01 01:56:06;;;;;;;7.50;6.65;;;;;;;1.55;90.83;103168.69;5038126;28;20041;-73
2023/03/01 01:58:31;;;;;;;7.88;7.07;;;;;;;1.53;90.77;103170.31;5037038;28;20033;-73
2023/03/01 02:00:57;;;;;;;7.03;5.97;;;;;;;1.50;90.63;103173.66;5037944;28;20213;-73
2023/03/01 02:03:28;;;;;;;6.72;6.10;;;;;;;1.47;90.54;103167.53;5037255;28;20057;-73
2023/03/01 02:06:03;;;;;;;8.52;7.13;;;;;;;1.45;90.63;103170.03;5037613;28;20076;-73
2023/03/01 02:08:32;;;;;;;7.80;7.00;;;;;;;1.43;90.50;103166.53;5036969;28;20317;-73
2023/03/01 02:11:04;;;;;;;7.35;6.65;;;;;;;1.41;90.50;103168.19;5037642;28;20469;-73
2023/03/01 02:13:31;;;;;;;7.00;6.30;;;;;;;1.40;90.61;103161.28;5038581;28;20037;-73
2023/03/01 02:15:56;;;;;;;7.63;6.75;;;;;;;1.38;90.56;103167.19;5041514;28;20033;-73
2023/03/01 02:18:24;;;;;;;8.57;7.20;;;;;;;1.35;90.46;103162.81;5040763;28;20051;-73
2023/03/01 02:21:08;;;;;;;10.07;7.30;;;;;;;1.31;90.52;103150.59;5041438;28;20029;-73
2023/03/01 02:23:34;;;;;;;7.70;6.82;;;;;;;1.31;90.66;103154.09;5040565;28;20060;-73
2023/03/01 02:26:07;;;;;;;9.43;7.90;;;;;;;1.29;90.57;103150.59;5041332;28;20228;-73
2023/03/01 02:28:36;;;;;;;7.40;6.70;;;;;;;1.28;90.72;103145.38;5040715;28;20041;-73
2023/03/01 02:33:48;;;;;;;7.75;6.90;;;;;;;1.27;90.75;103156.50;5041031;28;20036;-73
2023/03/01 02:36:22;;;;;;;7.90;7.05;;;;;;;1.25;90.80;103142.66;5040960;28;20044;-73
2023/03/01 02:38:51;;;;;;;8.13;6.90;;;;;;;1.24;90.89;103151.25;5040912;28;20080;-73
2023/03/01 02:41:19;;;;;;;8.15;7.05;;;;;;;1.23;90.79;103152.06;5039896;28;20041;-73
2023/03/01 02:43:44;;;;;;;8.43;7.25;;;;;;;1.21;90.75;103154.59;5040960;28;20244;-73
2023/03/01 02:46:20;;;;;;;9.80;8.02;;;;;;;1.21;90.77;103151.13;5041188;28;20037;-73
2023/03/01 02:48:50;;;;;;;8.65;7.50;;;;;;;1.17;90.71;103139.81;5040947;28;20071;-73
2023/03/01 02:51:53;;;;;;;8.20;7.13;;;;;;;1.17;90.93;103138.94;5040248;28;20101;-73
2023/03/01 02:54:39;;;;;;;7.55;6.85;;;;;;;1.15;90.81;103141.47;5040379;28;20025;-73
2023/03/01 02:57:05;;;;;;;7.82;6.97;;;;;;;1.13;90.84;103133.69;5040922;28;20042;-73
2023/03/01 02:59:39;;;;;;;7.78;6.97;;;;;;;1.11;91.02;103129.25;5039935;28;20037;-73
2023/03/01 03:02:05;;;;;;;8.90;7.13;;;;;;;1.10;90.98;103133.56;5040817;28;20272;-73
2023/03/01 03:04:31;;;;;;;7.90;7.05;;;;;;;1.09;90.92;103136.06;5039052;28;20340;-73
2023/03/01 03:06:57;;;;;;;9.77;7.53;;;;;;;1.06;91.05;103131.69;5040447;28;20059;-73
2023/03/01 03:09:22;;;;;;;8.45;7.65;;;;;;;1.05;91.05;103129.94;5040189;28;20052;-73
2023/03/01 03:11:48;;;;;;;9.38;7.60;;;;;;;1.04;91.08;103127.31;5040844;28;20033;-73
2023/03/01 03:14:15;;;;;;;9.00;8.10;;;;;;;1.04;91.22;103124.75;5040421;28;20258;-73
2023/03/01 03:16:43;;;;;;;8.77;7.88;;;;;;;1.03;91.29;103126.41;5040452;28;20101;-73
2023/03/01 03:19:08;;;;;;;9.40;7.70;;;;;;;1.03;91.32;103121.25;5040611;28;20037;-73
2023/03/01 03:21:34;;;;;;;9.02;7.80;;;;;;;1.02;91.29;103118.63;5039428;28;20057;-73
2023/03/01 03:23:59;;;;;;;9.07;7.63;;;;;;;1.01;90.84;103122.91;5039854;28;20436;-73
2023/03/01 03:26:25;;;;;;;7.97;7.18;;;;;;;0.98;91.42;103116.75;5038904;28;20041;-73
2023/03/01 03:28:51;;;;;;;8.18;7.32;;;;;;;0.97;91.33;103113.31;5040101;28;20041;-73
2023/03/01 03:31:16;;;;;;;8.52;7.30;;;;;;;0.95;91.24;103109.81;5039579;28;20040;-73
2023/03/01 03:33:41;;;;;;;10.38;7.50;;;;;;;0.93;91.44;103107.16;5040159;28;20040;-73
2023/03/01 03:36:12;;;;;;;8.30;7.07;;;;;;;0.91;91.36;103111.41;5040218;28;20160;-73
2023/03/01 03:38:39;;;;;;;11.07;8.13;;;;;;;0.91;91.51;103118.22;5039759;28;20105;-73
2023/03/01 03:41:08;;;;;;;10.15;8.48;;;;;;;0.88;91.33;103108.69;5039890;28;20077;-73
2023/03/01 03:43:35;;;;;;;9.40;8.18;;;;;;;0.87;91.39;103113.78;5039546;28;20104;-73
2023/03/01 03:46:05;;;;;;;10.27;8.20;;;;;;;0.86;91.51;103106.91;5040589;28;20360;-73
2023/03/01 03:48:32;;;;;;;10.15;8.80;;;;;;;0.84;91.54;103106.84;5039493;28;20411;-73
2023/03/01 03:50:58;;;;;;;11.95;8.55;;;;;;;0.83;91.44;103110.22;5039784;28;20101;-73
2023/03/01 03:53:25;;;;;;;10.90;8.57;;;;;;;0.83;91.52;103101.63;5038041;28;20041;-73
2023/03/01 03:55:51;;;;;;;10.30;8.27;;;;;;;0.81;91.59;103106.72;5039483;28;20033;-73
2023/03/01 03:58:19;;;;;;;9.57;8.32;;;;;;;0.81;91.48;103111.00;5039481;28;20037;-72
2023/03/01 04:00:46;;;;;;;11.02;8.40;;;;;;;0.79;91.68;103105.78;5039891;28;20240;-72
2023/03/01 04:03:13;;;;;;;12.02;9.23;;;;;;;0.77;91.55;103107.44;5039445;28;20052;-72
2023/03/01 04:05:40;;;;;;;9.60;8.38;;;;;;;0.76;91.50;103103.09;5039088;28;20275;-72
2023/03/01 04:08:06;;;;;;;12.73;9.10;;;;;;;0.74;91.60;103100.44;5039188;28;20037;-72
2023/03/01 04:10:38;;;;;;;10.77;8.40;;;;;;;0.73;91.73;103100.41;5038886;28;20451;-72
2023/03/01 04:13:08;;;;;;;10.98;8.88;;;;;;;0.71;91.71;103102.03;5039436;28;20085;-72
2023/03/01 04:15:35;;;;;;;10.88;8.70;;;;;;;0.70;91.67;103098.59;5038918;28;20083;-72
2023/03/01 04:18:00;;;;;;;11.95;9.05;;;;;;;0.69;91.78;103099.44;5039369;28;20037;-72
2023/03/01 04:20:29;;;;;;;11.00;8.80;;;;;;;0.66;91.70;103104.47;5038482;28;20064;-72
2023/03/01 04:23:10;;;;;;;10.02;8.48;;;;;;;0.66;91.75;103103.59;5038857;28;20037;-72
2023/03/01 04:25:39;;;;;;;10.98;8.70;;;;;;;0.65;91.81;103101.81;5038830;28;20056;-72
2023/03/01 04:28:05;;;;;;;10.50;9.07;;;;;;;0.63;91.66;103103.47;5039247;28;20263;-72
2023/03/01 04:30:35;;;;;;;10.00;8.80;;;;;;;0.61;91.83;103098.25;5038508;28;20029;-72
2023/03/01 04:33:02;;;;;;;12.32;8.82;;;;;;;0.60;91.79;103105.94;5038997;28;20048;-72
2023/03/01 04:35:27;;;;;;;11.38;8.57;;;;;;;0.59;91.88;103096.47;5038343;28;20037;-72
2023/03/01 04:37:53;;;;;;;9.70;8.18;;;;;;;0.58;91.92;103092.97;5038692;28;20075;-72
2023/03/01 04:40:18;;;;;;;11.20;9.98;;;;;;;0.57;92.09;103092.09;5038258;28;20086;-72
2023/03/01 04:42:43;;;;;;;10.85;9.18;;;;;;;0.58;92.03;103095.56;5038683;28;20091;-72
2023/03/01 04:45:12;;;;;;;11.35;8.80;;;;;;;0.56;92.01;103092.03;5038534;28;20299;-72
2023/03/01 04:47:44;;;;;;;12.13;9.40;;;;;;;0.56;92.19;103086.88;5038049;28;20037;-72
2023/03/01 04:50:10;;;;;;;15.70;9.60;;;;;;;0.54;92.18;103081.66;5038826;28;20036;-72
2023/03/01 04:52:36;;;;;;;11.68;9.65;;;;;;;0.53;92.12;103077.34;5037990;28;20045;-72
2023/03/01 04:55:01;;;;;;;13.45;9.77;;;;;;;0.51;92.29;103068.69;5038476;28;20371;-72
2023/03/01 04:57:27;;;;;;;13.48;10.35;;;;;;;0.52;92.29;103070.44;5038274;28;20041;-72
2023/03/01 04:59:52;;;;;;;12.82;10.38;;;;;;;0.52;92.27;103064.41;5038738;28;20041;-72
2023/03/01 05:02:18;;;;;;;12.82;10.25;;;;;;;0.51;92.39;103065.22;5037820;28;20100;-72
2023/03/01 05:04:43;;;;;;;12.30;8.93;;;;;;;0.51;92.49;103062.63;5038706;28;20037;-72
2023/03/01 05:07:09;;;;;;;15.10;10.23;;;;;;;0.51;92.57;103050.63;5038297;28;20097;-72
2023/03/01 05:09:34;;;;;;;13.60;10.07;;;;;;;0.50;92.56;103054.03;5037975;28;20045;-72
2023/03/01 05:12:00;;;;;;;14.02;9.57;;;;;;;0.50;92.70;103059.19;5038419;28;20095;-72
2023/03/01 05:14:25;;;;;;;12.93;10.27;;;;;;;0.50;92.71;103059.19;5037763;28;20205;-72
2023/03/01 05:16:50;;;;;;;10.93;9.65;;;;;;;0.50;92.74;103058.31;5037953;28;20041;-72
2023/03/01 05:19:16;;;;;;;9.73;8.73;;;;;;;0.49;92.77;103053.97;5037831;28;20082;-72
2023/03/01 05:22:01;;;;;;;11.25;9.05;;;;;;;0.49;92.92;103056.53;5038009;28;20275;-72
2023/03/01 05:24:27;;;;;;;11.95;9.30;;;;;;;0.48;92.96;103047.06;5037683;28;20044;-72
2023/03/01 05:26:53;;;;;;;11.40;9.02;;;;;;;0.48;93.09;103053.09;5038315;28;20033;-72
2023/03/01 05:29:24;;;;;;;14.32;10.70;;;;;;;0.48;93.17;103041.91;5037693;28;20386;-72
2023/03/01 05:31:52;;;;;;;12.35;9.90;;;;;;;0.46;93.18;103036.69;5037962;28;20021;-72
2023/03/01 05:34:17;;;;;;;10.73;9.07;;;;;;;0.45;93.33;103032.34;5037546;28;20045;-72
2023/03/01 05:36:42;;;;;;;12.65;9.35;;;;;;;0.44;93.45;103030.59;5038050;28;20041;-72
2023/03/01 05:39:08;;;;;;;12.77;9.27;;;;;;;0.44;93.45;103019.41;5037671;28;20045;-72
2023/03/01 05:41:33;;;;;;;10.63;9.02;;;;;;;0.44;93.59;103021.97;5037135;28;20076;-72
2023/03/01 05:43:59;;;;;;;11.63;9.10;;;;;;;0.42;93.47;103016.78;5038006;28;20045;-72
2023/03/01 05:46:24;;;;;;;10.25;8.90;;;;;;;0.42;93.67;103014.22;5037353;28;20071;-72
2023/03/01 05:48:49;;;;;;;14.65;9.75;;;;;;;0.42;93.72;103015.88;5037441;28;20320;-72
2023/03/01 05:51:15;;;;;;;14.02;10.55;;;;;;;0.41;93.66;103003.84;5037685;28;20034;-72
2023/03/01 05:53:40;;;;;;;12.75;10.00;;;;;;;0.40;93.69;103012.38;5037268;28;20029;-72
2023/03/01 05:56:05;;;;;;;13.77;10.38;;;;;;;0.38;93.57;103022.63;5037842;28;20045;-72
2023/03/01 05:58:31;;;;;;;13.00;10.13;;;;;;;0.37;93.71;103023.47;5037196;28;20045;-72
2023/03/01 06:00:57;;;;;;;13.50;9.88;;;;;;;0.36;93.83;103016.56;5037740;28;20340;-72
2023/03/01 06:03:22;;;;;;;11.13;9.20;;;;;;;0.34;93.88;103008.75;5037032;28;20493;-72
2023/03/01 06:05:47;;;;;;;12.15;9.38;;;;;;;0.34;93.75;103018.19;5038204;28;20046;-72
2023/03/01 06:08:13;;;;;;;13.15;10.00;;;;;;;0.32;93.98;103012.09;5037434;28;20116;-72
2023/03/01 06:10:39;;;;;;;14.82;10.52;;;;;;;0.30;94.00;103011.19;5037349;28;20033;-72
2023/03/01 06:13:05;;;;;;;12.07;9.73;;;;;;;0.29;93.84;103019.72;5037474;28;20045;-72
2023/03/01 06:15:31;;;;;;;11.73;9.52;;;;;;;0.26;94.12;103017.06;5037170;28;20033;-72
2023/03/01 06:17:56;;;;;;;12.32;9.80;;;;;;;0.25;93.94;103010.13;5037392;28;20046;-72
2023/03/01 06:20:24;;;;;;;13.25;10.40;;;;;;;0.22;93.78;103010.91;5037211;28;20080;-72
2023/03/01 06:22:50;;;;;;;12.02;9.98;;;;;;;0.21;93.81;103009.13;5037820;28;20033;-72
2023/03/01 06:25:18;;;;;;;13.63;9.73;;;;;;;0.18;93.94;103009.91;5037392;28;20087;-72
2023/03/01 06:27:44;;;;;;;11.67;10.47;;;;;;;0.17;93.94;103021.03;5038040;28;20037;-72
2023/03/01 06:30:13;;;;;;;12.32;9.85;;;;;;;0.15;93.82;103025.25;5025032;28;20371;-72
2023/03/01 06:32:41;;;;;;;10.50;8.90;;;;;;;0.14;93.92;103028.63;5034836;28;20048;-72
2023/03/01 06:35:08;;;;;;;10.10;8.60;;;;;;;0.14;93.78;103022.63;5035381;28;20531;-72
2023/03/01 06:37:35;;;;;;;11.55;9.50;;;;;;;0.11;93.76;103023.38;5034576;28;20226;-72
2023/03/01 06:40:04;;;;;;;10.63;9.40;;;;;;;0.11;93.70;103022.50;5035841;28;20111;-72
2023/03/01 06:42:29;;;;;;;9.93;8.25;;;;;;;0.10;93.62;103029.34;5034439;28;20049;-72
2023/03/01 06:44:55;;;;;;;9.50;8.15;;;;;;;0.09;93.74;103032.75;5035252;28;20048;-72
2023/03/01 06:47:20;;;;;;;9.70;8.32;;;;;;;0.07;93.66;103029.22;5034473;28;20041;-72
2023/03/01 06:49:46;;;;;;;9.93;8.93;;;;;;;0.07;93.75;103026.66;5034957;28;20355;-72
2023/03/01 06:52:11;;;;;;;10.70;8.38;;;;;;;0.05;93.74;103028.28;5031283;28;20038;-72
2023/03/01 06:54:36;;;;;;;9.35;8.38;;;;;;;0.04;93.68;103028.22;5016060;28;20356;-72
2023/03/01 06:57:02;;;;;;;11.55;8.90;;;;;;;0.02;93.76;103023.03;5016415;28;20053;-72
2023/03/01 06:59:27;;;;;;;10.07;8.93;;;;;;;0.01;93.73;103030.72;5016882;28;20030;-72
2023/03/01 07:01:53;;;;;;;9.73;8.73;;;;;;;0.01;93.74;103025.56;5020907;28;20128;-72
2023/03/01 07:04:18;;;;;;;9.50;8.52;;;;;;;0.01;93.73;103026.44;5020508;28;20046;-72
2023/03/01 07:06:43;;;;;;;9.63;8.63;;;;;;;0.01;93.88;103025.56;5026314;28;20090;-72
2023/03/01 07:09:09;;;;;;;11.30;8.80;;;;;;;-0.02;93.99;103027.19;5040245;28;20311;-72
2023/03/01 07:11:34;;;;;;;10.15;8.82;;;;;;;-0.01;93.77;103022.91;5039991;28;20042;-72
2023/03/01 07:13:59;;;;;;;11.95;9.80;;;;;;;0.00;93.79;103024.69;5040724;28;20100;-72
2023/03/01 07:16:25;;;;;;;12.00;10.25;;;;;;;0.02;93.87;103027.28;5040090;28;20218;-72
2023/03/01 07:18:50;;;;;;;11.50;9.65;;;;;;;0.02;94.14;103028.19;5040687;28;20037;-72
2023/03/01 07:21:16;;;;;;;12.52;9.40;;;;;;;0.01;94.08;103029.00;5039891;28;20041;-72
2023/03/01 07:23:41;;;;;;;13.25;10.13;;;;;;;0.02;94.05;103035.03;5040237;28;20063;-72
2023/03/01 07:26:07;;;;;;;13.85;9.77;;;;;;;0.02;94.20;103032.44;5040479;28;20053;-72
2023/03/01 07:28:38;;;;;;;12.75;10.55;;;;;;;0.02;94.23;103035.03;5039649;28;20029;-72
2023/03/01 07:31:04;;;;;;;13.15;9.88;;;;;;;0.02;94.14;103035.94;5040316;28;20025;-72
2023/03/01 07:33:29;;;;;;;12.90;10.25;;;;;;;0.03;94.25;103034.22;5039492;28;20294;-72
2023/03/01 07:35:57;;;;;;;14.65;10.75;;;;;;;0.03;94.21;103034.22;5040056;28;20041;-72
2023/03/01 07:38:22;;;;;;;14.25;10.10;;;;;;;0.04;94.30;103033.38;5039369;28;20044;-72
2023/03/01 07:40:48;;;;;;;14.30;10.88;;;;;;;0.05;94.56;103035.16;5039426;28;20053;-72
2023/03/01 07:43:13;;;;;;;15.00;11.05;;;;;;;0.05;94.49;103030.88;5039617;28;20056;-72
2023/03/01 07:45:38;;;;;;;14.50;11.38;;;;;;;0.07;94.77;103033.50;5039269;28;20041;-72
2023/03/01 07:48:04;;;;;;;14.32;11.70;;;;;;;0.08;94.74;103035.28;5039877;28;20108;-72
2023/03/01 07:50:29;;;;;;;15.82;11.70;;;;;;;0.09;94.80;103034.44;5038909;28;20045;-72
2023/03/01 07:52:55;;;;;;;14.63;10.73;;;;;;;0.11;94.69;103040.53;5038989;28;20305;-72
2023/03/01 07:55:20;;;;;;;16.33;12.30;;;;;;;0.12;94.94;103043.16;5038914;28;20292;-72
2023/03/01 07:57:46;;;;;;;14.90;11.73;;;;;;;0.15;95.11;103034.69;5040017;28;20060;-72
2023/03/01 08:00:12;;;;;;;15.98;11.93;;;;;;;0.16;95.16;103034.75;5039554;28;20065;-72
2023/03/01 08:02:37;;;;;;;16.35;12.18;;;;;;;0.18;95.20;103033.09;5038999;28;20041;-72
2023/03/01 08:05:04;;;;;;;17.40;12.55;;;;;;;0.22;95.37;103030.63;5039406;28;20329;-72
2023/03/01 08:07:29;;;;;;;16.02;12.45;;;;;;;0.23;95.63;103029.81;5038750;28;20041;-72
2023/03/01 08:09:54;;;;;;;18.30;12.35;;;;;;;0.25;95.72;103035.91;5038536;28;20048;-72
2023/03/01 08:12:20;;;;;;;16.58;12.90;;;;;;;0.27;95.91;103021.38;5036998;28;20040;-72
2023/03/01 08:14:45;;;;;;;16.15;12.90;;;;;;;0.31;95.84;103033.53;5038128;28;20064;-72
2023/03/01 08:17:14;;;;;;;17.83;12.82;;;;;;;0.33;96.03;103031.94;5037700;28;20047;-72
2023/03/01 08:19:39;;;;;;;16.40;12.52;;;;;;;0.35;96.31;103022.53;5037716;28;20248;-72
2023/03/01 08:22:05;;;;;;;17.33;11.88;;;;;;;0.37;96.30;103016.59;5037617;28;20033;-72
2023/03/01 08:24:30;;;;;;;17.75;12.27;;;;;;;0.42;96.61;103028.78;5037566;28;20052;-72
2023/03/01 08:26:56;;;;;;;15.73;12.50;;;;;;;0.44;96.68;103021.97;5039099;28;20107;-72
2023/03/01 08:29:21;;;;;;;17.73;12.68;;;;;;;0.47;96.94;103024.66;5038472;28;20037;-72
2023/03/01 08:31:48;;;;;;;18.90;13.40;;;;;;;0.50;96.99;103023.09;5039171;28;20336;-72
2023/03/01 08:34:16;;;;;;;19.90;13.02;;;;;;;0.53;97.19;103027.50;5038795;28;20065;-72
2023/03/01 08:36:44;;;;;;;15.00;11.63;;;;;;;0.56;97.38;103018.16;5038301;28;20349;-73
2023/03/01 08:39:12;;;;;;;17.97;12.60;;;;;;;0.61;97.43;103022.59;5037984;28;20037;-73
2023/03/01 08:41:38;;;;;;;20.25;13.15;;;;;;;0.64;97.29;103015.84;5037802;28;20233;-74
2023/03/01 08:44:04;;;;;;;17.58;13.50;;;;;;;0.67;97.67;103013.34;5039245;28;20037;-74
2023/03/01 08:46:32;;;;;;;17.40;13.07;;;;;;;0.71;97.72;103016.91;5038431;28;20033;-74
2023/03/01 08:48:58;;;;;;;15.27;11.85;;;;;;;0.69;97.82;103011.75;5039237;28;20040;-74
2023/03/01 08:51:25;;;;;;;15.48;12.02;;;;;;;0.71;97.69;103012.66;5038619;28;20026;-74
2023/03/01 08:53:51;;;;;;;17.00;12.02;;;;;;;0.75;97.78;103021.38;5038134;28;20068;-74
2023/03/01 08:56:18;;;;;;;16.58;12.38;;;;;;;0.76;97.81;103024.03;5033761;28;20037;-74
2023/03/01 08:58:47;;;;;;;18.05;13.10;;;;;;;0.80;97.92;103018.94;5037160;28;20064;-74
2023/03/01 09:01:16;;;;;;;13.63;10.85;;;;;;;0.80;97.91;103025.00;5051569;28;20049;-74
2023/03/01 09:03:42;;;;;;;13.52;11.27;;;;;;;0.82;97.70;103022.47;5056168;28;20395;-74
2023/03/01 09:06:08;;;;;;;14.55;11.07;;;;;;;0.85;97.70;103020.00;5056946;28;20064;-73
2023/03/01 09:08:39;;;;;;;16.58;10.95;;;;;;;0.88;97.77;103017.53;5056060;28;20364;-73
2023/03/01 09:11:06;;;;;;;18.13;12.18;;;;;;;0.90;97.72;103005.56;5050437;28;20035;-73
2023/03/01 09:13:33;;;;;;;13.65;10.50;;;;;;;0.91;97.49;103005.63;5056233;28;20090;-73
2023/03/01 09:16:00;;;;;;;12.43;10.10;;;;;;;0.96;97.77;103008.31;5055337;28;20110;-73
2023/03/01 09:18:26;;;;;;;14.75;11.15;;;;;;;0.99;97.69;103000.69;5055012;28;20025;-73
2023/03/01 09:20:51;;;;;;;14.98;10.43;;;;;;;1.03;97.86;103004.25;5055668;28;20335;-73
2023/03/01 09:23:16;;;;;;;16.77;11.23;;;;;;;1.05;97.56;103002.59;5054212;28;20029;-73
2023/03/01 09:25:42;;;;;;;15.68;11.15;;;;;;;1.08;97.54;103000.13;5055969;28;20043;-73
2023/03/01 09:28:07;;;;;;;14.23;10.57;;;;;;;1.11;97.63;102993.38;5056536;28;20044;-73
2023/03/01 09:30:32;;;;;;;14.95;11.40;;;;;;;1.13;97.12;102993.44;5056674;28;20033;-73
2023/03/01 09:32:58;;;;;;;15.80;10.93;;;;;;;1.15;96.67;102984.03;5057360;28;20040;-73
2023/03/01 09:35:24;;;;;;;20.25;10.85;;;;;;;1.16;96.33;102980.59;5057332;28;20245;-73
2023/03/01 09:37:49;;;;;;;15.68;10.63;;;;;;;1.19;95.79;102979.84;5058072;28;20040;-73
2023/03/01 09:40:18;;;;;;;13.50;9.40;;;;;;;1.17;92.33;102978.91;5057730;28;20272;-73
2023/03/01 09:43:05;;;;;;;14.00;10.00;;;;;;;1.20;89.79;102984.16;5057532;28;20057;-73
2023/03/01 09:45:40;;;;;;;19.05;8.95;;;;;;;1.23;87.56;102987.72;5057192;28;20057;-73
2023/03/01 09:48:15;;;;;;;12.77;9.52;;;;;;;1.27;86.87;102983.53;5057986;28;20036;-73
2023/03/01 09:50:43;;;;;;;16.95;8.82;;;;;;;1.32;87.34;102987.16;5057557;28;20139;-73
2023/03/01 09:53:14;;;;;;;14.48;7.88;;;;;;;1.36;85.40;102988.13;5057443;28;20027;-73
2023/03/01 09:55:49;;;;;;;10.85;7.50;;;;;;;1.40;83.96;102987.38;5057771;28;20040;-73
2023/03/01 09:58:36;;;;;;;7.93;6.63;;;;;;;1.44;84.70;102984.09;5057476;28;20037;-73
2023/03/01 10:01:14;;;;;;;9.90;7.38;;;;;;;1.47;84.18;102985.03;5058097;28;20608;-73
2023/03/01 10:03:45;;;;;;;12.18;7.22;;;;;;;1.50;82.54;102977.41;5057850;28;20040;-73
2023/03/01 10:06:19;;;;;;;7.43;6.72;;;;;;;1.55;82.97;102972.38;5057963;28;20544;-73
2023/03/01 10:09:10;;;;;;;8.07;7.25;;;;;;;1.60;82.48;102968.25;5057867;28;20032;-73
2023/03/01 10:11:38;;;;;;;11.13;7.13;;;;;;;1.65;82.72;102970.94;5057193;28;20060;-73
2023/03/01 10:14:36;;;;;;;9.32;5.88;;;;;;;1.70;81.36;102966.81;5049593;28;20108;-73
2023/03/01 10:17:48;;;;;;;7.90;6.53;;;;;;;1.74;81.28;102960.88;5037567;28;20041;-73
2023/03/01 10:20:38;;;;;;;9.57;6.07;;;;;;;1.78;80.56;102967.91;4995763;28;20057;-73
2023/03/01 10:23:04;;;;;;;11.02;6.60;;;;;;;1.83;81.01;102958.56;4995622;28;20437;-73
2023/03/01 10:25:36;;;;;;;8.30;6.10;;;;;;;1.87;80.97;102959.53;5023863;28;20057;-73
2023/03/01 10:28:10;;;;;;;9.68;6.07;;;;;;;1.92;79.91;102950.22;5037309;28;20048;-73
2023/03/01 10:30:41;;;;;;;8.75;6.05;;;;;;;1.95;80.35;102942.56;5036741;28;20052;-73
2023/03/01 10:33:37;;;;;;;10.15;5.53;;;;;;;2.00;80.21;102930.66;5037388;28;20041;-73
2023/03/01 10:36:02;;;;;;;10.75;5.57;;;;;;;2.05;80.26;102933.34;5035697;28;20365;-73
2023/03/01 10:38:31;;;;;;;7.88;5.45;;;;;;;2.08;79.86;102936.91;5040291;28;20064;-73
2023/03/01 10:41:01;;;;;;;9.73;6.07;;;;;;;2.15;78.92;102930.22;5041044;28;20383;-73
2023/03/01 10:43:40;;;;;;;7.05;6.32;;;;;;;2.20;78.76;102926.03;5040432;28;20297;-73
2023/03/01 10:46:27;;;;;;;9.57;5.68;;;;;;;2.24;78.34;102927.88;5041090;28;20065;-73
2023/03/01 10:49:20;;;;;;;9.15;5.78;;;;;;;2.31;78.33;102926.34;5041101;28;20055;-73
2023/03/01 10:51:52;;;;;;;8.05;6.10;;;;;;;2.36;79.29;102927.31;5041035;28;20140;-73
2023/03/01 10:54:23;;;;;;;7.32;6.43;;;;;;;2.41;78.54;102932.63;5040149;28;20076;-73
2023/03/01 10:56:55;;;;;;;11.40;7.43;;;;;;;2.44;77.90;102917.19;5040507;28;20075;-73
2023/03/01 10:59:32;;;;;;;10.32;7.90;;;;;;;2.48;78.66;102922.47;5039909;28;20029;-73
2023/03/01 11:02:21;;;;;;;10.15;7.72;;;;;;;2.50;78.27;102912.19;5040713;28;20140;-73
2023/03/01 11:05:06;;;;;;;12.40;8.07;;;;;;;2.55;78.10;102909.69;5040245;28;20037;-73
2023/03/01 11:07:53;;;;;;;9.45;7.60;;;;;;;2.57;78.38;102898.56;5040098;28;20317;-73
2023/03/01 11:10:23;;;;;;;8.63;6.97;;;;;;;2.59;77.50;102898.59;5040322;28;20037;-73
2023/03/01 11:12:51;;;;;;;7.75;6.35;;;;;;;2.60;76.86;102890.88;5040430;28;20037;-73
2023/03/01 11:15:26;;;;;;;10.70;7.13;;;;;;;2.63;77.64;102884.91;5039834;28;20370;-73
2023/03/01 11:17:53;;;;;;;8.38;6.68;;;;;;;2.65;77.29;102886.69;5040221;28;20044;-73
2023/03/01 11:20:29;;;;;;;9.98;6.55;;;;;;;2.71;77.49;102877.31;5040042;28;20041;-73
2023/03/01 11:22:59;;;;;;;9.10;7.18;;;;;;;2.74;77.12;102878.28;5040193;28;20072;-73
2023/03/01 11:25:36;;;;;;;11.00;6.97;;;;;;;2.76;77.32;102878.31;5039535;28;20132;-73
2023/03/01 11:28:05;;;;;;;12.18;8.45;;;;;;;2.80;78.04;102873.28;5039926;28;20044;-73
2023/03/01 11:30:54;;;;;;;10.57;7.55;;;;;;;2.82;76.96;102870.69;5039454;28;20034;-73
2023/03/01 11:33:32;;;;;;;8.55;7.60;;;;;;;2.83;77.04;102864.69;5040094;28;20309;-73
2023/03/01 11:36:05;;;;;;;13.32;8.38;;;;;;;2.84;77.12;102869.91;5040363;28;20037;-73